Shinei Maru — JM6456 — position and weather

sailwx.info

Track history (hours):
 
Tides and Currents Weather Stations Pressure Air Temp Water Temp Dewpoint Dewpoint Depression Visibility Wind Speed Wind Dir Waves Ship Positions

Shinei Maru

Last reported at 2017-Dec-11 17:00 UTC. Time now 2017-Dec-11 19:11 UTC.
Position N 34°39' E 135°28'.

Length 41 m.

Type: Tanker. MMSI: 431008799.

Date/timePositionNaut miles runAvg speedWind from/ knotsBaromVisibWave heightAir tempDewpointWater temp
2017-Dec-11 17:00N 34°39' E 135°28'0 0.0
2017-Dec-11 16:30N 34°39' E 135°28'0 0.0
2017-Dec-11 16:00N 34°39' E 135°28'0 0.0
2017-Dec-11 15:30N 34°39' E 135°28'0 0.0
2017-Dec-11 15:00N 34°39' E 135°28'0 0.0
2017-Dec-11 14:30N 34°39' E 135°28'0 0.0
2017-Dec-11 14:00N 34°39' E 135°28'0 0.0
2017-Dec-11 13:30N 34°39' E 135°28'0 0.0
2017-Dec-11 13:00N 34°39' E 135°28'0 0.0
2017-Dec-11 12:30N 34°39' E 135°28'0 0.0
2017-Dec-11 12:00N 34°39' E 135°28'0 0.0
2017-Dec-11 11:30N 34°39' E 135°28'0 0.0
2017-Dec-11 11:00N 34°39' E 135°28'0 0.0
2017-Dec-11 10:30N 34°39' E 135°28'0 0.0
2017-Dec-11 10:00N 34°39' E 135°28'0 0.0
2017-Dec-11 09:30N 34°39' E 135°28'0 0.0
2017-Dec-11 09:00N 34°39' E 135°28'0 0.0
2017-Dec-11 08:30N 34°39' E 135°28'0 0.0
2017-Dec-11 08:00N 34°39' E 135°28'0 0.0
2017-Dec-11 07:30N 34°39' E 135°28'0 0.0
2017-Dec-11 07:00N 34°39' E 135°28'0 0.0
2017-Dec-11 06:30N 34°39' E 135°28'0 0.0
2017-Dec-11 06:00N 34°39' E 135°28'0 0.1
2017-Dec-11 05:30N 34°39' E 135°28'0 0.5
2017-Dec-11 04:59N 34°38' E 135°28'0 0.1
2017-Dec-11 04:29N 34°38' E 135°28'0 0.1
2017-Dec-11 04:00N 34°39' E 135°28'1 1.3
2017-Dec-11 03:30N 34°39' E 135°27'4 8.8
2017-Dec-11 03:00N 34°35' E 135°24'3 5.0
2017-Dec-11 02:28N 34°33' E 135°26'0 0.0
2017-Dec-11 01:58N 34°33' E 135°26'0 0.0
2017-Dec-11 01:30N 34°33' E 135°26'0 0.7
2017-Dec-11 01:00N 34°33' E 135°25'2 3.4
2017-Dec-11 00:30N 34°32' E 135°24'1 2.7
2017-Dec-10 23:59N 34°32' E 135°25'2 3.3
2017-Dec-10 23:30N 34°32' E 135°24'5 9.8
2017-Dec-10 23:00N 34°37' E 135°23'2 4.8
2017-Dec-10 22:30N 34°40' E 135°24'0 0.0
2017-Dec-10 22:00N 34°40' E 135°24'0 0.0
2017-Dec-10 21:30N 34°40' E 135°24'3 5.5
2017-Dec-10 21:00N 34°39' E 135°28'0 0.1
2017-Dec-10 20:29N 34°39' E 135°28'0 0.0
2017-Dec-10 19:59N 34°39' E 135°28'0 0.0
2017-Dec-10 19:29N 34°39' E 135°28'0 0.0
2017-Dec-10 18:59N 34°39' E 135°28'0 0.0
2017-Dec-10 18:29N 34°39' E 135°28'0 0.0
2017-Dec-10 17:56N 34°39' E 135°28'0 0.0
2017-Dec-10 17:26N 34°39' E 135°28'0 0.0
2017-Dec-10 16:59N 34°39' E 135°28'0 0.0
2017-Dec-10 16:29N 34°39' E 135°28'0 0.0
2017-Dec-10 15:59N 34°39' E 135°28'0 0.0
2017-Dec-10 15:29N 34°39' E 135°28'0 0.0
2017-Dec-10 14:59N 34°39' E 135°28'0 0.0
2017-Dec-10 14:29N 34°39' E 135°28'0 0.0
2017-Dec-10 13:59N 34°39' E 135°28'0 0.0
2017-Dec-10 13:26N 34°39' E 135°28'0 0.0
2017-Dec-10 12:59N 34°39' E 135°28'0 0.0
2017-Dec-10 12:29N 34°39' E 135°28'0 0.0
2017-Dec-10 11:59N 34°39' E 135°28'0 0.0
2017-Dec-10 11:26N 34°39' E 135°28'0 0.0
2017-Dec-10 10:59N 34°39' E 135°28'0 0.0
2017-Dec-10 10:29N 34°39' E 135°28'0 0.0
2017-Dec-10 09:56N 34°39' E 135°28'0 0.0
2017-Dec-10 09:26N 34°39' E 135°28'0 0.0
2017-Dec-10 08:59N 34°39' E 135°28'0 0.0
2017-Dec-10 08:29N 34°39' E 135°28'0 0.0
2017-Dec-10 07:59N 34°39' E 135°28'0 0.0
2017-Dec-10 07:29N 34°39' E 135°28'0 0.0
2017-Dec-10 06:56N 34°39' E 135°28'0 0.0
2017-Dec-10 06:29N 34°39' E 135°28'0 0.0
2017-Dec-10 05:59N 34°39' E 135°28'0 0.0
2017-Dec-10 05:29N 34°39' E 135°28'0 0.0
2017-Dec-10 04:59N 34°39' E 135°28'0 0.0
2017-Dec-10 04:29N 34°39' E 135°28'0 0.0
2017-Dec-10 03:59N 34°39' E 135°28'0 0.0
2017-Dec-10 03:26N 34°39' E 135°28'0 0.0
2017-Dec-10 02:56N 34°39' E 135°28'0 0.0
2017-Dec-10 02:26N 34°39' E 135°28'0 0.0
2017-Dec-10 01:56N 34°39' E 135°28'0 0.0
2017-Dec-10 01:29N 34°39' E 135°28'0 0.0
2017-Dec-10 00:56N 34°39' E 135°28'0 0.0
2017-Dec-10 00:29N 34°39' E 135°28'0 0.0
2017-Dec-09 23:59N 34°39' E 135°28'0 0.0
2017-Dec-09 23:26N 34°39' E 135°28'0 0.0
2017-Dec-09 22:59N 34°39' E 135°28'0 0.0
2017-Dec-09 22:29N 34°39' E 135°28'0 0.0
2017-Dec-09 21:59N 34°39' E 135°28'0 0.0
2017-Dec-09 21:29N 34°39' E 135°28'0 0.0
2017-Dec-09 20:56N 34°39' E 135°28'0 0.0
2017-Dec-09 20:26N 34°39' E 135°28'0 0.0
2017-Dec-09 19:56N 34°39' E 135°28'0 0.0
2017-Dec-09 19:26N 34°39' E 135°28'0 0.0
2017-Dec-09 18:59N 34°39' E 135°28'0 0.0
2017-Dec-09 18:29N 34°39' E 135°28'0 0.0
2017-Dec-09 17:59N 34°39' E 135°28'0 0.0
2017-Dec-09 17:29N 34°39' E 135°28'0 0.0
2017-Dec-09 16:59N 34°39' E 135°28'0 0.0
2017-Dec-09 16:26N 34°39' E 135°28'0 0.0
2017-Dec-09 15:56N 34°39' E 135°28'0 0.0
2017-Dec-09 15:29N 34°39' E 135°28'0 0.0
2017-Dec-09 14:59N 34°39' E 135°28'0 0.0
2017-Dec-09 14:29N 34°39' E 135°28'0 0.0
2017-Dec-09 13:59N 34°39' E 135°28'0 0.0
2017-Dec-09 13:29N 34°39' E 135°28'0 0.0
2017-Dec-09 12:59N 34°39' E 135°28'0 0.0
2017-Dec-09 12:29N 34°39' E 135°28'0 0.0
2017-Dec-09 11:56N 34°39' E 135°28'0 0.0
2017-Dec-09 11:26N 34°39' E 135°28'0 0.0
2017-Dec-09 10:56N 34°39' E 135°28'0 0.0
2017-Dec-09 10:26N 34°39' E 135°28'0 0.0
2017-Dec-09 09:59N 34°39' E 135°28'0 0.0
2017-Dec-09 09:29N 34°39' E 135°28'0 0.0
2017-Dec-09 08:59N 34°39' E 135°28'0 0.0
2017-Dec-09 08:26N 34°39' E 135°28'0 0.0
2017-Dec-09 07:59N 34°39' E 135°28'0 0.0
2017-Dec-09 07:26N 34°39' E 135°28'0 0.0
2017-Dec-09 06:56N 34°39' E 135°28'0 0.0
2017-Dec-09 06:26N 34°39' E 135°28'0 0.0
2017-Dec-09 05:56N 34°39' E 135°28'0 0.0
2017-Dec-09 05:29N 34°39' E 135°28'0 0.0
2017-Dec-09 04:59N 34°39' E 135°28'0 0.0
2017-Dec-09 04:29N 34°39' E 135°28'0 0.0
2017-Dec-09 03:56N 34°39' E 135°28'0 0.0
2017-Dec-09 03:29N 34°39' E 135°28'0 0.0
2017-Dec-09 02:56N 34°39' E 135°28'0 0.0
2017-Dec-09 02:26N 34°39' E 135°28'0 0.0
2017-Dec-09 01:59N 34°39' E 135°28'0 0.0
2017-Dec-09 01:29N 34°39' E 135°28'0 0.0
2017-Dec-09 00:59N 34°39' E 135°28'0 0.0
2017-Dec-09 00:26N 34°39' E 135°28'0 0.0
2017-Dec-08 23:59N 34°39' E 135°28'0 0.0
2017-Dec-08 23:29N 34°39' E 135°28'0 0.0
2017-Dec-08 22:56N 34°39' E 135°28'0 0.0
2017-Dec-08 22:29N 34°39' E 135°28'0 0.0
2017-Dec-08 21:56N 34°39' E 135°28'0 0.0
2017-Dec-08 21:26N 34°39' E 135°28'0 0.0
2017-Dec-08 20:56N 34°39' E 135°28'0 0.0
2017-Dec-08 20:29N 34°39' E 135°28'0 0.0
2017-Dec-08 19:56N 34°39' E 135°28'0 0.0
2017-Dec-08 19:26N 34°39' E 135°28'0 0.0
2017-Dec-08 18:59N 34°39' E 135°28'0 0.0
2017-Dec-08 18:29N 34°39' E 135°28'0 0.0
2017-Dec-08 17:56N 34°39' E 135°28'0 0.0
2017-Dec-08 17:26N 34°39' E 135°28'0 0.0
2017-Dec-08 16:53N 34°39' E 135°28'0 0.0
2017-Dec-08 16:29N 34°39' E 135°28'0 0.0
2017-Dec-08 15:59N 34°39' E 135°28'0 0.0
2017-Dec-08 15:29N 34°39' E 135°28'0 0.0
2017-Dec-08 14:59N 34°39' E 135°28'0 0.0
2017-Dec-08 14:29N 34°39' E 135°28'0 0.0
2017-Dec-08 13:59N 34°39' E 135°28'0 0.0
2017-Dec-08 13:29N 34°39' E 135°28'0 0.0
2017-Dec-08 12:59N 34°39' E 135°28'0 0.0
2017-Dec-08 12:29N 34°39' E 135°28'0 0.0
2017-Dec-08 11:59N 34°39' E 135°28'0 0.0
2017-Dec-08 11:26N 34°39' E 135°28'0 0.0
2017-Dec-08 10:59N 34°39' E 135°28'0 0.0
2017-Dec-08 10:29N 34°39' E 135°28'0 0.0
2017-Dec-08 09:59N 34°39' E 135°28'0 0.0
2017-Dec-08 09:26N 34°39' E 135°28'0 0.0
2017-Dec-08 08:59N 34°39' E 135°28'0 0.0
2017-Dec-08 08:29N 34°39' E 135°28'0 0.0
2017-Dec-08 07:56N 34°39' E 135°28'0 0.0
2017-Dec-08 07:28N 34°39' E 135°28'3 5.8
2017-Dec-08 07:00N 34°37' E 135°25'2 4.8
2017-Dec-08 06:29N 34°34' E 135°26'0 0.0
2017-Dec-08 05:59N 34°34' E 135°26'2 3.9
2017-Dec-08 05:30N 34°36' E 135°25'3 5.8
2017-Dec-08 05:00N 34°33' E 135°26'0 0.7
2017-Dec-08 04:30N 34°33' E 135°27'3 6.9
2017-Dec-08 04:01N 34°34' E 135°23'510.3
2017-Dec-08 03:30N 34°38' E 135°18'510.3
2017-Dec-08 03:00N 34°41' E 135°13'1 1.6
2017-Dec-08 02:28N 34°41' E 135°12'1 1.5
2017-Dec-08 01:59N 34°40' E 135°12'1 1.1
2017-Dec-08 01:30N 34°41' E 135°12'0 0.1
2017-Dec-08 01:00N 34°41' E 135°12'0 0.0
2017-Dec-08 00:30N 34°41' E 135°12'1 1.2
2017-Dec-07 23:59N 34°41' E 135°12'0 0.0
2017-Dec-07 23:31N 34°41' E 135°12'0 0.4
2017-Dec-07 23:00N 34°41' E 135°12'1 1.6
2017-Dec-07 22:31N 34°41' E 135°13'5 9.0
2017-Dec-07 22:00N 34°37' E 135°16'0 0.1
2017-Dec-07 21:28N 34°37' E 135°16'0 0.1
2017-Dec-07 20:58N 34°37' E 135°16'0 0.0
2017-Dec-07 20:28N 34°37' E 135°16'0 1.0
2017-Dec-07 20:00N 34°37' E 135°16'5 9.4
2017-Dec-07 19:30N 34°39' E 135°22'5 9.0
2017-Dec-07 19:00N 34°39' E 135°27'0 0.4
2017-Dec-07 18:29N 34°39' E 135°28'0 0.0
2017-Dec-07 17:59N 34°39' E 135°28'0 0.0
2017-Dec-07 17:29N 34°39' E 135°28'0 0.0
2017-Dec-07 16:59N 34°39' E 135°28'0 0.0
2017-Dec-07 16:29N 34°39' E 135°28'0 0.0
2017-Dec-07 15:59N 34°39' E 135°28'0 0.0
2017-Dec-07 15:29N 34°39' E 135°28'0 0.0
2017-Dec-07 14:59N 34°39' E 135°28'0 0.0
2017-Dec-07 14:29N 34°39' E 135°28'0 0.0
2017-Dec-07 13:59N 34°39' E 135°28'0 0.0
2017-Dec-07 13:29N 34°39' E 135°28'0 0.0
2017-Dec-07 12:59N 34°39' E 135°28'0 0.0
2017-Dec-07 12:29N 34°39' E 135°28'0 0.0
2017-Dec-07 11:59N 34°39' E 135°28'0 0.0
2017-Dec-07 11:29N 34°39' E 135°28'0 0.0
2017-Dec-07 10:59N 34°39' E 135°28'0 0.0
2017-Dec-07 10:29N 34°39' E 135°28'0 0.0
2017-Dec-07 09:59N 34°39' E 135°28'0 0.0
2017-Dec-07 09:29N 34°39' E 135°28'0 0.0
2017-Dec-07 08:59N 34°39' E 135°28'0 0.0
2017-Dec-07 08:29N 34°39' E 135°28'0 0.0
2017-Dec-07 07:59N 34°39' E 135°28'0 0.0
2017-Dec-07 07:29N 34°39' E 135°28'0 0.0
2017-Dec-07 06:59N 34°39' E 135°28'0 0.0
2017-Dec-07 06:29N 34°39' E 135°28'0 0.0
2017-Dec-07 05:59N 34°39' E 135°28'0 0.0
2017-Dec-07 05:29N 34°39' E 135°28'0 0.0
2017-Dec-07 04:59N 34°39' E 135°28'0 0.2
2017-Dec-07 04:30N 34°39' E 135°28'1 1.7
2017-Dec-07 04:00N 34°38' E 135°27'4 8.1
2017-Dec-07 03:30N 34°35' E 135°24'2 4.1
2017-Dec-07 02:59N 34°33' E 135°26'0 0.0
2017-Dec-07 02:29N 34°33' E 135°26'0 0.0
2017-Dec-07 01:59N 34°33' E 135°26'0 0.0
2017-Dec-07 01:29N 34°33' E 135°26'1 3.1
2017-Dec-07 01:00N 34°34' E 135°24'2 4.3
2017-Dec-07 00:30N 34°36' E 135°24'0 0.9
2017-Dec-07 00:00N 34°35' E 135°24'1 1.1
2017-Dec-06 23:29N 34°35' E 135°23'0 0.0
2017-Dec-06 22:59N 34°35' E 135°23'0 0.0
2017-Dec-06 22:29N 34°35' E 135°23'3 5.1
2017-Dec-06 21:58N 34°37' E 135°25'4 8.1
2017-Dec-06 21:30N 34°39' E 135°21'5 9.4
2017-Dec-06 21:00N 34°41' E 135°16'  
2017-Dec-04 10:24N 34°39' E 135°28'0 0.0
2017-Dec-04 10:00N 34°39' E 135°28'0 0.0
2017-Dec-04 09:30N 34°39' E 135°28'0 0.0
2017-Dec-04 09:00N 34°39' E 135°28'0 0.0
2017-Dec-04 08:30N 34°39' E 135°28'0 0.0
2017-Dec-04 08:00N 34°39' E 135°28'0 0.0
2017-Dec-04 07:27N 34°39' E 135°28'0 0.0
2017-Dec-04 07:00N 34°39' E 135°28'0 0.3
2017-Dec-04 06:30N 34°39' E 135°27'4 8.1
2017-Dec-04 06:00N 34°36' E 135°24'3 6.1
2017-Dec-04 05:30N 34°33' E 135°26'0 0.0
2017-Dec-04 05:00N 34°33' E 135°26'0 0.0
2017-Dec-04 04:30N 34°33' E 135°26'0 0.0
2017-Dec-04 04:00N 34°33' E 135°26'2 3.0
2017-Dec-04 03:28N 34°32' E 135°25'1 1.4
2017-Dec-04 03:00N 34°31' E 135°25'510.0
2017-Dec-04 02:30N 34°36' E 135°23'2 3.9
2017-Dec-04 01:59N 34°38' E 135°25'0 0.0
2017-Dec-04 01:29N 34°38' E 135°25'0 0.0
2017-Dec-04 00:59N 34°38' E 135°25'1 3.1
2017-Dec-04 00:30N 34°37' E 135°25'2 4.6
2017-Dec-03 23:58N 34°34' E 135°26'0 0.1
2017-Dec-03 23:30N 34°34' E 135°26'4 8.2
2017-Dec-03 23:00N 34°38' E 135°26'0 0.7
2017-Dec-03 22:29N 34°39' E 135°26'0 0.0
2017-Dec-03 21:59N 34°39' E 135°26'1 1.9
2017-Dec-03 21:31N 34°39' E 135°28'0 0.0
2017-Dec-03 21:01N 34°39' E 135°28'0 0.0
2017-Dec-03 20:31N 34°39' E 135°28'0 0.0
2017-Dec-03 19:58N 34°39' E 135°28'0 0.0
2017-Dec-03 19:31N 34°39' E 135°28'0 0.0
2017-Dec-03 19:01N 34°39' E 135°28'0 0.0
2017-Dec-03 18:31N 34°39' E 135°28'0 0.0
2017-Dec-03 18:01N 34°39' E 135°28'0 0.0
2017-Dec-03 17:28N 34°39' E 135°28'0 0.0
2017-Dec-03 17:01N 34°39' E 135°28'0 0.0
2017-Dec-03 16:28N 34°39' E 135°28'0 0.0
2017-Dec-03 15:55N 34°39' E 135°28'0 0.0
2017-Dec-03 15:31N 34°39' E 135°28'0 0.0
2017-Dec-03 14:58N 34°39' E 135°28'0 0.0
2017-Dec-03 14:28N 34°39' E 135°28'0 0.0
2017-Dec-03 14:01N 34°39' E 135°28'0 0.0
2017-Dec-03 13:25N 34°39' E 135°28'0 0.0
2017-Dec-03 13:01N 34°39' E 135°28'0 0.0
2017-Dec-03 12:31N 34°39' E 135°28'0 0.0
2017-Dec-03 12:01N 34°39' E 135°28'0 0.0
2017-Dec-03 11:30N 34°39' E 135°28'0 0.0
2017-Dec-03 11:01N 34°39' E 135°28'0 0.0
2017-Dec-03 10:31N 34°39' E 135°28'0 0.0
2017-Dec-03 10:01N 34°39' E 135°28'0 0.0
2017-Dec-03 09:25N 34°39' E 135°28'0 0.0
2017-Dec-03 09:01N 34°39' E 135°28'0 0.0
2017-Dec-03 08:28N 34°39' E 135°28'0 0.0
2017-Dec-03 08:00N 34°39' E 135°28'0 0.0
2017-Dec-03 07:28N 34°39' E 135°28'0 0.0
2017-Dec-03 06:58N 34°39' E 135°28'0 0.0
2017-Dec-03 06:31N 34°39' E 135°28'0 0.0
2017-Dec-03 06:01N 34°39' E 135°28'0 0.0
2017-Dec-03 05:28N 34°39' E 135°28'3 6.2
2017-Dec-03 05:01N 34°37' E 135°25'3 6.7
2017-Dec-03 04:31N 34°33' E 135°25'0 0.5
2017-Dec-03 04:00N 34°33' E 135°26'0 0.0
2017-Dec-03 03:30N 34°33' E 135°26'2 3.7
2017-Dec-03 03:00N 34°34' E 135°24'3 5.5
2017-Dec-03 02:25N 34°37' E 135°26'0 0.0
2017-Dec-03 01:58N 34°37' E 135°26'0 0.0
2017-Dec-03 01:28N 34°37' E 135°26'0 0.0
2017-Dec-03 00:37N 34°37' E 135°26'0 0.3
2017-Dec-03 00:25N 34°37' E 135°26'1 3.2
2017-Dec-03 00:00N 34°38' E 135°27'1 1.6
2017-Dec-02 23:29N 34°39' E 135°28'0 0.0
2017-Dec-02 22:59N 34°39' E 135°28'0 0.0
2017-Dec-02 22:29N 34°39' E 135°28'0 0.0
2017-Dec-02 21:56N 34°39' E 135°28'0 0.0
2017-Dec-02 21:26N 34°39' E 135°28'0 0.0
2017-Dec-02 20:59N 34°39' E 135°28'0 0.0
2017-Dec-02 20:29N 34°39' E 135°28'0 0.0
2017-Dec-02 19:59N 34°39' E 135°28'0 0.0
2017-Dec-02 19:29N 34°39' E 135°28'0 0.0
2017-Dec-02 18:59N 34°39' E 135°28'0 0.0
2017-Dec-02 18:29N 34°39' E 135°28'0 0.0
2017-Dec-02 17:59N 34°39' E 135°28'0 0.0
2017-Dec-02 17:29N 34°39' E 135°28'0 0.0
2017-Dec-02 16:59N 34°39' E 135°28'0 0.0
2017-Dec-02 16:29N 34°39' E 135°28'0 0.0
2017-Dec-02 15:59N 34°39' E 135°28'0 0.0
2017-Dec-02 15:29N 34°39' E 135°28'0 0.0
2017-Dec-02 14:59N 34°39' E 135°28'0 0.0
2017-Dec-02 14:29N 34°39' E 135°28'0 0.0
2017-Dec-02 13:59N 34°39' E 135°28'0 0.0
2017-Dec-02 13:29N 34°39' E 135°28'0 0.0
2017-Dec-02 12:59N 34°39' E 135°28'0 0.0
2017-Dec-02 12:29N 34°39' E 135°28'0 0.0
2017-Dec-02 11:56N 34°39' E 135°28'0 0.0
2017-Dec-02 11:29N 34°39' E 135°28'0 0.0
2017-Dec-02 10:59N 34°39' E 135°28'0 0.0
2017-Dec-02 10:29N 34°39' E 135°28'0 0.0
2017-Dec-02 09:59N 34°39' E 135°28'0 0.0
2017-Dec-02 09:29N 34°39' E 135°28'0 0.0
2017-Dec-02 08:59N 34°39' E 135°28'0 0.0
2017-Dec-02 08:29N 34°39' E 135°28'0 0.0
2017-Dec-02 07:59N 34°39' E 135°28'0 0.0
2017-Dec-02 07:29N 34°39' E 135°28'0 0.0
2017-Dec-02 06:56N 34°39' E 135°28'0 0.0
2017-Dec-02 06:29N 34°39' E 135°28'3 6.3
2017-Dec-02 06:00N 34°38' E 135°24'5 9.4
2017-Dec-02 05:30N 34°38' E 135°18'2 4.3
2017-Dec-02 04:58N 34°37' E 135°16'2 4.5
2017-Dec-02 04:30N 34°36' E 135°18'1 2.8
2017-Dec-02 04:00N 34°34' E 135°18'0 0.4
2017-Dec-02 03:30N 34°34' E 135°18'1 2.6
2017-Dec-02 03:00N 34°34' E 135°19'1 2.2
2017-Dec-02 02:29N 34°34' E 135°21'2 3.4
2017-Dec-02 02:00N 34°35' E 135°23'4 8.5
2017-Dec-02 01:30N 34°38' E 135°27'1 2.4
2017-Dec-02 00:59N 34°39' E 135°28'0 0.0
2017-Dec-02 00:29N 34°39' E 135°28'0 0.0
2017-Dec-01 23:59N 34°39' E 135°28'0 0.0
2017-Dec-01 23:29N 34°39' E 135°28'0 0.0
2017-Dec-01 22:59N 34°39' E 135°28'0 0.0
2017-Dec-01 22:29N 34°39' E 135°28'0 0.0
2017-Dec-01 21:59N 34°39' E 135°28'0 0.0
2017-Dec-01 21:29N 34°39' E 135°28'0 0.0
2017-Dec-01 20:56N 34°39' E 135°28'0 0.0
2017-Dec-01 20:29N 34°39' E 135°28'0 0.0
2017-Dec-01 19:59N 34°39' E 135°28'0 0.0
2017-Dec-01 19:29N 34°39' E 135°28'0 0.0
2017-Dec-01 18:59N 34°39' E 135°28'0 0.0
2017-Dec-01 18:29N 34°39' E 135°28'0 0.0
2017-Dec-01 17:59N 34°39' E 135°28'0 0.0
2017-Dec-01 17:29N 34°39' E 135°28'  
Track history (hours):
 
Tides and Currents Weather Stations Pressure Air Temp Water Temp Dewpoint Dewpoint Depression Visibility Wind Speed Wind Dir Waves Ship Positions

Shinei Maru

Last reported at 2017-Dec-11 17:00 UTC. Time now 2017-Dec-11 19:11 UTC.
Position N 34°39' E 135°28'.

Length 41 m.

Type: Tanker. MMSI: 431008799.

Date/timePositionNaut miles runAvg speedWind from/ knotsBaromVisibWave heightAir tempDewpointWater temp
2017-Dec-11 17:00N 34°39' E 135°28'0 0.0
2017-Dec-11 16:30N 34°39' E 135°28'0 0.0
2017-Dec-11 16:00N 34°39' E 135°28'0 0.0
2017-Dec-11 15:30N 34°39' E 135°28'0 0.0
2017-Dec-11 15:00N 34°39' E 135°28'0 0.0
2017-Dec-11 14:30N 34°39' E 135°28'0 0.0
2017-Dec-11 14:00N 34°39' E 135°28'0 0.0
2017-Dec-11 13:30N 34°39' E 135°28'0 0.0
2017-Dec-11 13:00N 34°39' E 135°28'0 0.0
2017-Dec-11 12:30N 34°39' E 135°28'0 0.0
2017-Dec-11 12:00N 34°39' E 135°28'0 0.0
2017-Dec-11 11:30N 34°39' E 135°28'0 0.0
2017-Dec-11 11:00N 34°39' E 135°28'0 0.0
2017-Dec-11 10:30N 34°39' E 135°28'0 0.0
2017-Dec-11 10:00N 34°39' E 135°28'0 0.0
2017-Dec-11 09:30N 34°39' E 135°28'0 0.0
2017-Dec-11 09:00N 34°39' E 135°28'0 0.0
2017-Dec-11 08:30N 34°39' E 135°28'0 0.0
2017-Dec-11 08:00N 34°39' E 135°28'0 0.0
2017-Dec-11 07:30N 34°39' E 135°28'0 0.0
2017-Dec-11 07:00N 34°39' E 135°28'0 0.0
2017-Dec-11 06:30N 34°39' E 135°28'0 0.0
2017-Dec-11 06:00N 34°39' E 135°28'0 0.1
2017-Dec-11 05:30N 34°39' E 135°28'0 0.5
2017-Dec-11 04:59N 34°38' E 135°28'0 0.1
2017-Dec-11 04:29N 34°38' E 135°28'0 0.1
2017-Dec-11 04:00N 34°39' E 135°28'1 1.3
2017-Dec-11 03:30N 34°39' E 135°27'4 8.8
2017-Dec-11 03:00N 34°35' E 135°24'3 5.0
2017-Dec-11 02:28N 34°33' E 135°26'0 0.0
2017-Dec-11 01:58N 34°33' E 135°26'0 0.0
2017-Dec-11 01:30N 34°33' E 135°26'0 0.7
2017-Dec-11 01:00N 34°33' E 135°25'2 3.4
2017-Dec-11 00:30N 34°32' E 135°24'1 2.7
2017-Dec-10 23:59N 34°32' E 135°25'2 3.3
2017-Dec-10 23:30N 34°32' E 135°24'5 9.8
2017-Dec-10 23:00N 34°37' E 135°23'2 4.8
2017-Dec-10 22:30N 34°40' E 135°24'0 0.0
2017-Dec-10 22:00N 34°40' E 135°24'0 0.0
2017-Dec-10 21:30N 34°40' E 135°24'3 5.5
2017-Dec-10 21:00N 34°39' E 135°28'0 0.1
2017-Dec-10 20:29N 34°39' E 135°28'0 0.0
2017-Dec-10 19:59N 34°39' E 135°28'0 0.0
2017-Dec-10 19:29N 34°39' E 135°28'0 0.0
2017-Dec-10 18:59N 34°39' E 135°28'0 0.0
2017-Dec-10 18:29N 34°39' E 135°28'0 0.0
2017-Dec-10 17:56N 34°39' E 135°28'0 0.0
2017-Dec-10 17:26N 34°39' E 135°28'0 0.0
2017-Dec-10 16:59N 34°39' E 135°28'0 0.0
2017-Dec-10 16:29N 34°39' E 135°28'0 0.0
2017-Dec-10 15:59N 34°39' E 135°28'0 0.0
2017-Dec-10 15:29N 34°39' E 135°28'0 0.0
2017-Dec-10 14:59N 34°39' E 135°28'0 0.0
2017-Dec-10 14:29N 34°39' E 135°28'0 0.0
2017-Dec-10 13:59N 34°39' E 135°28'0 0.0
2017-Dec-10 13:26N 34°39' E 135°28'0 0.0
2017-Dec-10 12:59N 34°39' E 135°28'0 0.0
2017-Dec-10 12:29N 34°39' E 135°28'0 0.0
2017-Dec-10 11:59N 34°39' E 135°28'0 0.0
2017-Dec-10 11:26N 34°39' E 135°28'0 0.0
2017-Dec-10 10:59N 34°39' E 135°28'0 0.0
2017-Dec-10 10:29N 34°39' E 135°28'0 0.0
2017-Dec-10 09:56N 34°39' E 135°28'0 0.0
2017-Dec-10 09:26N 34°39' E 135°28'0 0.0
2017-Dec-10 08:59N 34°39' E 135°28'0 0.0
2017-Dec-10 08:29N 34°39' E 135°28'0 0.0
2017-Dec-10 07:59N 34°39' E 135°28'0 0.0
2017-Dec-10 07:29N 34°39' E 135°28'0 0.0
2017-Dec-10 06:56N 34°39' E 135°28'0 0.0
2017-Dec-10 06:29N 34°39' E 135°28'0 0.0
2017-Dec-10 05:59N 34°39' E 135°28'0 0.0
2017-Dec-10 05:29N 34°39' E 135°28'0 0.0
2017-Dec-10 04:59N 34°39' E 135°28'0 0.0
2017-Dec-10 04:29N 34°39' E 135°28'0 0.0
2017-Dec-10 03:59N 34°39' E 135°28'0 0.0
2017-Dec-10 03:26N 34°39' E 135°28'0 0.0
2017-Dec-10 02:56N 34°39' E 135°28'0 0.0
2017-Dec-10 02:26N 34°39' E 135°28'0 0.0
2017-Dec-10 01:56N 34°39' E 135°28'0 0.0
2017-Dec-10 01:29N 34°39' E 135°28'0 0.0
2017-Dec-10 00:56N 34°39' E 135°28'0 0.0
2017-Dec-10 00:29N 34°39' E 135°28'0 0.0
2017-Dec-09 23:59N 34°39' E 135°28'0 0.0
2017-Dec-09 23:26N 34°39' E 135°28'0 0.0
2017-Dec-09 22:59N 34°39' E 135°28'0 0.0
2017-Dec-09 22:29N 34°39' E 135°28'0 0.0
2017-Dec-09 21:59N 34°39' E 135°28'0 0.0
2017-Dec-09 21:29N 34°39' E 135°28'0 0.0
2017-Dec-09 20:56N 34°39' E 135°28'0 0.0
2017-Dec-09 20:26N 34°39' E 135°28'0 0.0
2017-Dec-09 19:56N 34°39' E 135°28'0 0.0
2017-Dec-09 19:26N 34°39' E 135°28'0 0.0
2017-Dec-09 18:59N 34°39' E 135°28'0 0.0
2017-Dec-09 18:29N 34°39' E 135°28'0 0.0
2017-Dec-09 17:59N 34°39' E 135°28'0 0.0
2017-Dec-09 17:29N 34°39' E 135°28'0 0.0
2017-Dec-09 16:59N 34°39' E 135°28'0 0.0
2017-Dec-09 16:26N 34°39' E 135°28'0 0.0
2017-Dec-09 15:56N 34°39' E 135°28'0 0.0
2017-Dec-09 15:29N 34°39' E 135°28'0 0.0
2017-Dec-09 14:59N 34°39' E 135°28'0 0.0
2017-Dec-09 14:29N 34°39' E 135°28'0 0.0
2017-Dec-09 13:59N 34°39' E 135°28'0 0.0
2017-Dec-09 13:29N 34°39' E 135°28'0 0.0
2017-Dec-09 12:59N 34°39' E 135°28'0 0.0
2017-Dec-09 12:29N 34°39' E 135°28'0 0.0
2017-Dec-09 11:56N 34°39' E 135°28'0 0.0
2017-Dec-09 11:26N 34°39' E 135°28'0 0.0
2017-Dec-09 10:56N 34°39' E 135°28'0 0.0
2017-Dec-09 10:26N 34°39' E 135°28'0 0.0
2017-Dec-09 09:59N 34°39' E 135°28'0 0.0
2017-Dec-09 09:29N 34°39' E 135°28'0 0.0
2017-Dec-09 08:59N 34°39' E 135°28'0 0.0
2017-Dec-09 08:26N 34°39' E 135°28'0 0.0
2017-Dec-09 07:59N 34°39' E 135°28'0 0.0
2017-Dec-09 07:26N 34°39' E 135°28'0 0.0
2017-Dec-09 06:56N 34°39' E 135°28'0 0.0
2017-Dec-09 06:26N 34°39' E 135°28'0 0.0
2017-Dec-09 05:56N 34°39' E 135°28'0 0.0
2017-Dec-09 05:29N 34°39' E 135°28'0 0.0
2017-Dec-09 04:59N 34°39' E 135°28'0 0.0
2017-Dec-09 04:29N 34°39' E 135°28'0 0.0
2017-Dec-09 03:56N 34°39' E 135°28'0 0.0
2017-Dec-09 03:29N 34°39' E 135°28'0 0.0
2017-Dec-09 02:56N 34°39' E 135°28'0 0.0
2017-Dec-09 02:26N 34°39' E 135°28'0 0.0
2017-Dec-09 01:59N 34°39' E 135°28'0 0.0
2017-Dec-09 01:29N 34°39' E 135°28'0 0.0
2017-Dec-09 00:59N 34°39' E 135°28'0 0.0
2017-Dec-09 00:26N 34°39' E 135°28'0 0.0
2017-Dec-08 23:59N 34°39' E 135°28'0 0.0
2017-Dec-08 23:29N 34°39' E 135°28'0 0.0
2017-Dec-08 22:56N 34°39' E 135°28'0 0.0
2017-Dec-08 22:29N 34°39' E 135°28'0 0.0
2017-Dec-08 21:56N 34°39' E 135°28'0 0.0
2017-Dec-08 21:26N 34°39' E 135°28'0 0.0
2017-Dec-08 20:56N 34°39' E 135°28'0 0.0
2017-Dec-08 20:29N 34°39' E 135°28'0 0.0
2017-Dec-08 19:56N 34°39' E 135°28'0 0.0
2017-Dec-08 19:26N 34°39' E 135°28'0 0.0
2017-Dec-08 18:59N 34°39' E 135°28'0 0.0
2017-Dec-08 18:29N 34°39' E 135°28'0 0.0
2017-Dec-08 17:56N 34°39' E 135°28'0 0.0
2017-Dec-08 17:26N 34°39' E 135°28'0 0.0
2017-Dec-08 16:53N 34°39' E 135°28'0 0.0
2017-Dec-08 16:29N 34°39' E 135°28'0 0.0
2017-Dec-08 15:59N 34°39' E 135°28'0 0.0
2017-Dec-08 15:29N 34°39' E 135°28'0 0.0
2017-Dec-08 14:59N 34°39' E 135°28'0 0.0
2017-Dec-08 14:29N 34°39' E 135°28'0 0.0
2017-Dec-08 13:59N 34°39' E 135°28'0 0.0
2017-Dec-08 13:29N 34°39' E 135°28'0 0.0
2017-Dec-08 12:59N 34°39' E 135°28'0 0.0
2017-Dec-08 12:29N 34°39' E 135°28'0 0.0
2017-Dec-08 11:59N 34°39' E 135°28'0 0.0
2017-Dec-08 11:26N 34°39' E 135°28'0 0.0
2017-Dec-08 10:59N 34°39' E 135°28'0 0.0
2017-Dec-08 10:29N 34°39' E 135°28'0 0.0
2017-Dec-08 09:59N 34°39' E 135°28'0 0.0
2017-Dec-08 09:26N 34°39' E 135°28'0 0.0
2017-Dec-08 08:59N 34°39' E 135°28'0 0.0
2017-Dec-08 08:29N 34°39' E 135°28'0 0.0
2017-Dec-08 07:56N 34°39' E 135°28'0 0.0
2017-Dec-08 07:28N 34°39' E 135°28'3 5.8
2017-Dec-08 07:00N 34°37' E 135°25'2 4.8
2017-Dec-08 06:29N 34°34' E 135°26'0 0.0
2017-Dec-08 05:59N 34°34' E 135°26'2 3.9
2017-Dec-08 05:30N 34°36' E 135°25'3 5.8
2017-Dec-08 05:00N 34°33' E 135°26'0 0.7
2017-Dec-08 04:30N 34°33' E 135°27'3 6.9
2017-Dec-08 04:01N 34°34' E 135°23'510.3
2017-Dec-08 03:30N 34°38' E 135°18'510.3
2017-Dec-08 03:00N 34°41' E 135°13'1 1.6
2017-Dec-08 02:28N 34°41' E 135°12'1 1.5
2017-Dec-08 01:59N 34°40' E 135°12'1 1.1
2017-Dec-08 01:30N 34°41' E 135°12'0 0.1
2017-Dec-08 01:00N 34°41' E 135°12'0 0.0
2017-Dec-08 00:30N 34°41' E 135°12'1 1.2
2017-Dec-07 23:59N 34°41' E 135°12'0 0.0
2017-Dec-07 23:31N 34°41' E 135°12'0 0.4
2017-Dec-07 23:00N 34°41' E 135°12'1 1.6
2017-Dec-07 22:31N 34°41' E 135°13'5 9.0
2017-Dec-07 22:00N 34°37' E 135°16'0 0.1
2017-Dec-07 21:28N 34°37' E 135°16'0 0.1
2017-Dec-07 20:58N 34°37' E 135°16'0 0.0
2017-Dec-07 20:28N 34°37' E 135°16'0 1.0
2017-Dec-07 20:00N 34°37' E 135°16'5 9.4
2017-Dec-07 19:30N 34°39' E 135°22'5 9.0
2017-Dec-07 19:00N 34°39' E 135°27'0 0.4
2017-Dec-07 18:29N 34°39' E 135°28'0 0.0
2017-Dec-07 17:59N 34°39' E 135°28'0 0.0
2017-Dec-07 17:29N 34°39' E 135°28'0 0.0
2017-Dec-07 16:59N 34°39' E 135°28'0 0.0
2017-Dec-07 16:29N 34°39' E 135°28'0 0.0
2017-Dec-07 15:59N 34°39' E 135°28'0 0.0
2017-Dec-07 15:29N 34°39' E 135°28'0 0.0
2017-Dec-07 14:59N 34°39' E 135°28'0 0.0
2017-Dec-07 14:29N 34°39' E 135°28'0 0.0
2017-Dec-07 13:59N 34°39' E 135°28'0 0.0
2017-Dec-07 13:29N 34°39' E 135°28'0 0.0
2017-Dec-07 12:59N 34°39' E 135°28'0 0.0
2017-Dec-07 12:29N 34°39' E 135°28'0 0.0
2017-Dec-07 11:59N 34°39' E 135°28'0 0.0
2017-Dec-07 11:29N 34°39' E 135°28'0 0.0
2017-Dec-07 10:59N 34°39' E 135°28'0 0.0
2017-Dec-07 10:29N 34°39' E 135°28'0 0.0
2017-Dec-07 09:59N 34°39' E 135°28'0 0.0
2017-Dec-07 09:29N 34°39' E 135°28'0 0.0
2017-Dec-07 08:59N 34°39' E 135°28'0 0.0
2017-Dec-07 08:29N 34°39' E 135°28'0 0.0
2017-Dec-07 07:59N 34°39' E 135°28'0 0.0
2017-Dec-07 07:29N 34°39' E 135°28'0 0.0
2017-Dec-07 06:59N 34°39' E 135°28'0 0.0
2017-Dec-07 06:29N 34°39' E 135°28'0 0.0
2017-Dec-07 05:59N 34°39' E 135°28'0 0.0
2017-Dec-07 05:29N 34°39' E 135°28'0 0.0
2017-Dec-07 04:59N 34°39' E 135°28'0 0.2
2017-Dec-07 04:30N 34°39' E 135°28'1 1.7
2017-Dec-07 04:00N 34°38' E 135°27'4 8.1
2017-Dec-07 03:30N 34°35' E 135°24'2 4.1
2017-Dec-07 02:59N 34°33' E 135°26'0 0.0
2017-Dec-07 02:29N 34°33' E 135°26'0 0.0
2017-Dec-07 01:59N 34°33' E 135°26'0 0.0
2017-Dec-07 01:29N 34°33' E 135°26'1 3.1
2017-Dec-07 01:00N 34°34' E 135°24'2 4.3
2017-Dec-07 00:30N 34°36' E 135°24'0 0.9
2017-Dec-07 00:00N 34°35' E 135°24'1 1.1
2017-Dec-06 23:29N 34°35' E 135°23'0 0.0
2017-Dec-06 22:59N 34°35' E 135°23'0 0.0
2017-Dec-06 22:29N 34°35' E 135°23'3 5.1
2017-Dec-06 21:58N 34°37' E 135°25'4 8.1
2017-Dec-06 21:30N 34°39' E 135°21'5 9.4
2017-Dec-06 21:00N 34°41' E 135°16'  
2017-Dec-04 10:24N 34°39' E 135°28'0 0.0
2017-Dec-04 10:00N 34°39' E 135°28'0 0.0
2017-Dec-04 09:30N 34°39' E 135°28'0 0.0
2017-Dec-04 09:00N 34°39' E 135°28'0 0.0
2017-Dec-04 08:30N 34°39' E 135°28'0 0.0
2017-Dec-04 08:00N 34°39' E 135°28'0 0.0
2017-Dec-04 07:27N 34°39' E 135°28'0 0.0
2017-Dec-04 07:00N 34°39' E 135°28'0 0.3
2017-Dec-04 06:30N 34°39' E 135°27'4 8.1
2017-Dec-04 06:00N 34°36' E 135°24'3 6.1
2017-Dec-04 05:30N 34°33' E 135°26'0 0.0
2017-Dec-04 05:00N 34°33' E 135°26'0 0.0
2017-Dec-04 04:30N 34°33' E 135°26'0 0.0
2017-Dec-04 04:00N 34°33' E 135°26'2 3.0
2017-Dec-04 03:28N 34°32' E 135°25'1 1.4
2017-Dec-04 03:00N 34°31' E 135°25'510.0
2017-Dec-04 02:30N 34°36' E 135°23'2 3.9
2017-Dec-04 01:59N 34°38' E 135°25'0 0.0
2017-Dec-04 01:29N 34°38' E 135°25'0 0.0
2017-Dec-04 00:59N 34°38' E 135°25'1 3.1
2017-Dec-04 00:30N 34°37' E 135°25'2 4.6
2017-Dec-03 23:58N 34°34' E 135°26'0 0.1
2017-Dec-03 23:30N 34°34' E 135°26'4 8.2
2017-Dec-03 23:00N 34°38' E 135°26'0 0.7
2017-Dec-03 22:29N 34°39' E 135°26'0 0.0
2017-Dec-03 21:59N 34°39' E 135°26'1 1.9
2017-Dec-03 21:31N 34°39' E 135°28'0 0.0
2017-Dec-03 21:01N 34°39' E 135°28'0 0.0
2017-Dec-03 20:31N 34°39' E 135°28'0 0.0
2017-Dec-03 19:58N 34°39' E 135°28'0 0.0
2017-Dec-03 19:31N 34°39' E 135°28'0 0.0
2017-Dec-03 19:01N 34°39' E 135°28'0 0.0
2017-Dec-03 18:31N 34°39' E 135°28'0 0.0
2017-Dec-03 18:01N 34°39' E 135°28'0 0.0
2017-Dec-03 17:28N 34°39' E 135°28'0 0.0
2017-Dec-03 17:01N 34°39' E 135°28'0 0.0
2017-Dec-03 16:28N 34°39' E 135°28'0 0.0
2017-Dec-03 15:55N 34°39' E 135°28'0 0.0
2017-Dec-03 15:31N 34°39' E 135°28'0 0.0
2017-Dec-03 14:58N 34°39' E 135°28'0 0.0
2017-Dec-03 14:28N 34°39' E 135°28'0 0.0
2017-Dec-03 14:01N 34°39' E 135°28'0 0.0
2017-Dec-03 13:25N 34°39' E 135°28'0 0.0
2017-Dec-03 13:01N 34°39' E 135°28'0 0.0
2017-Dec-03 12:31N 34°39' E 135°28'0 0.0
2017-Dec-03 12:01N 34°39' E 135°28'0 0.0
2017-Dec-03 11:30N 34°39' E 135°28'0 0.0
2017-Dec-03 11:01N 34°39' E 135°28'0 0.0
2017-Dec-03 10:31N 34°39' E 135°28'0 0.0
2017-Dec-03 10:01N 34°39' E 135°28'0 0.0
2017-Dec-03 09:25N 34°39' E 135°28'0 0.0
2017-Dec-03 09:01N 34°39' E 135°28'0 0.0
2017-Dec-03 08:28N 34°39' E 135°28'0 0.0
2017-Dec-03 08:00N 34°39' E 135°28'0 0.0
2017-Dec-03 07:28N 34°39' E 135°28'0 0.0
2017-Dec-03 06:58N 34°39' E 135°28'0 0.0
2017-Dec-03 06:31N 34°39' E 135°28'0 0.0
2017-Dec-03 06:01N 34°39' E 135°28'0 0.0
2017-Dec-03 05:28N 34°39' E 135°28'3 6.2
2017-Dec-03 05:01N 34°37' E 135°25'3 6.7
2017-Dec-03 04:31N 34°33' E 135°25'0 0.5
2017-Dec-03 04:00N 34°33' E 135°26'0 0.0
2017-Dec-03 03:30N 34°33' E 135°26'2 3.7
2017-Dec-03 03:00N 34°34' E 135°24'3 5.5
2017-Dec-03 02:25N 34°37' E 135°26'0 0.0
2017-Dec-03 01:58N 34°37' E 135°26'0 0.0
2017-Dec-03 01:28N 34°37' E 135°26'0 0.0
2017-Dec-03 00:37N 34°37' E 135°26'0 0.3
2017-Dec-03 00:25N 34°37' E 135°26'1 3.2
2017-Dec-03 00:00N 34°38' E 135°27'1 1.6
2017-Dec-02 23:29N 34°39' E 135°28'0 0.0
2017-Dec-02 22:59N 34°39' E 135°28'0 0.0
2017-Dec-02 22:29N 34°39' E 135°28'0 0.0
2017-Dec-02 21:56N 34°39' E 135°28'0 0.0
2017-Dec-02 21:26N 34°39' E 135°28'0 0.0
2017-Dec-02 20:59N 34°39' E 135°28'0 0.0
2017-Dec-02 20:29N 34°39' E 135°28'0 0.0
2017-Dec-02 19:59N 34°39' E 135°28'0 0.0
2017-Dec-02 19:29N 34°39' E 135°28'0 0.0
2017-Dec-02 18:59N 34°39' E 135°28'0 0.0
2017-Dec-02 18:29N 34°39' E 135°28'0 0.0
2017-Dec-02 17:59N 34°39' E 135°28'0 0.0
2017-Dec-02 17:29N 34°39' E 135°28'0 0.0
2017-Dec-02 16:59N 34°39' E 135°28'0 0.0
2017-Dec-02 16:29N 34°39' E 135°28'0 0.0
2017-Dec-02 15:59N 34°39' E 135°28'0 0.0
2017-Dec-02 15:29N 34°39' E 135°28'0 0.0
2017-Dec-02 14:59N 34°39' E 135°28'0 0.0
2017-Dec-02 14:29N 34°39' E 135°28'0 0.0
2017-Dec-02 13:59N 34°39' E 135°28'0 0.0
2017-Dec-02 13:29N 34°39' E 135°28'0 0.0
2017-Dec-02 12:59N 34°39' E 135°28'0 0.0
2017-Dec-02 12:29N 34°39' E 135°28'0 0.0
2017-Dec-02 11:56N 34°39' E 135°28'0 0.0
2017-Dec-02 11:29N 34°39' E 135°28'0 0.0
2017-Dec-02 10:59N 34°39' E 135°28'0 0.0
2017-Dec-02 10:29N 34°39' E 135°28'0 0.0
2017-Dec-02 09:59N 34°39' E 135°28'0 0.0
2017-Dec-02 09:29N 34°39' E 135°28'0 0.0
2017-Dec-02 08:59N 34°39' E 135°28'0 0.0
2017-Dec-02 08:29N 34°39' E 135°28'0 0.0
2017-Dec-02 07:59N 34°39' E 135°28'0 0.0
2017-Dec-02 07:29N 34°39' E 135°28'0 0.0
2017-Dec-02 06:56N 34°39' E 135°28'0 0.0
2017-Dec-02 06:29N 34°39' E 135°28'3 6.3
2017-Dec-02 06:00N 34°38' E 135°24'5 9.4
2017-Dec-02 05:30N 34°38' E 135°18'2 4.3
2017-Dec-02 04:58N 34°37' E 135°16'2 4.5
2017-Dec-02 04:30N 34°36' E 135°18'1 2.8
2017-Dec-02 04:00N 34°34' E 135°18'0 0.4
2017-Dec-02 03:30N 34°34' E 135°18'1 2.6
2017-Dec-02 03:00N 34°34' E 135°19'1 2.2
2017-Dec-02 02:29N 34°34' E 135°21'2 3.4
2017-Dec-02 02:00N 34°35' E 135°23'4 8.5
2017-Dec-02 01:30N 34°38' E 135°27'1 2.4
2017-Dec-02 00:59N 34°39' E 135°28'0 0.0
2017-Dec-02 00:29N 34°39' E 135°28'0 0.0
2017-Dec-01 23:59N 34°39' E 135°28'0 0.0
2017-Dec-01 23:29N 34°39' E 135°28'0 0.0
2017-Dec-01 22:59N 34°39' E 135°28'0 0.0
2017-Dec-01 22:29N 34°39' E 135°28'0 0.0
2017-Dec-01 21:59N 34°39' E 135°28'0 0.0
2017-Dec-01 21:29N 34°39' E 135°28'0 0.0
2017-Dec-01 20:56N 34°39' E 135°28'0 0.0
2017-Dec-01 20:29N 34°39' E 135°28'0 0.0
2017-Dec-01 19:59N 34°39' E 135°28'0 0.0
2017-Dec-01 19:29N 34°39' E 135°28'0 0.0
2017-Dec-01 18:59N 34°39' E 135°28'0 0.0
2017-Dec-01 18:29N 34°39' E 135°28'0 0.0
2017-Dec-01 17:59N 34°39' E 135°28'0 0.0
2017-Dec-01 17:29N 34°39' E 135°28'  

Dump ship's entire track history